Time;durP1;ratioP1;P1;durP2;ratioP2;P2;SDS_P1;SDS_P2;PMS_P1;PMS_P2;Temp;Humidity;BMP_temperature;BMP_pressure;BME280_temperature;BME280_humidity;BME280_pressure;Samples;Min_cycle;Max_cycle;Signal;HPM_P1;HPM_P2
2021/12/28 00:00:18;;;;;;;5.70;3.10;;;;;;;;;;4994760;28;20235;-68
2021/12/28 00:02:47;;;;;;;3.20;2.60;;;;;;;;;;4994761;28;20216;-67
2021/12/28 00:05:15;;;;;;;3.83;3.03;;;;;;;;;;4994683;28;20283;-66
2021/12/28 00:07:43;;;;;;;2.87;2.63;;;;;;;;;;4994559;28;20231;-68
2021/12/28 00:10:12;;;;;;;3.63;2.47;;;;;;;;;;4994834;28;20663;-68
2021/12/28 00:12:40;;;;;;;5.13;3.30;;;;;;;;;;5001687;28;20222;-68
2021/12/28 00:15:30;;;;;;;4.17;2.70;;;;;;;;;;5013968;28;20211;-66
2021/12/28 00:18:03;;;;;;;5.27;2.93;;;;;;;;;;5014006;28;20691;-68
2021/12/28 00:20:32;;;;;;;3.00;2.70;;;;;;;;;;5016959;28;20213;-68
2021/12/28 00:23:01;;;;;;;4.73;2.73;;;;;;;;;;5017302;28;20659;-66
2021/12/28 00:25:29;;;;;;;3.27;2.50;;;;;;;;;;5016931;28;20578;-66
2021/12/28 00:27:57;;;;;;;6.00;3.23;;;;;;;;;;5017493;28;20207;-67
2021/12/28 00:30:26;;;;;;;3.40;2.73;;;;;;;;;;5017080;28;20235;-67
2021/12/28 00:32:56;;;;;;;7.43;3.07;;;;;;;;;;5017433;28;20205;-66
2021/12/28 00:35:25;;;;;;;3.67;2.73;;;;;;;;;;5017706;28;20291;-66
2021/12/28 00:37:53;;;;;;;3.23;2.40;;;;;;;;;;5016870;28;20271;-66
2021/12/28 00:40:21;;;;;;;3.50;2.50;;;;;;;;;;5017307;28;20214;-68
2021/12/28 00:42:49;;;;;;;5.40;3.20;;;;;;;;;;5017056;28;20208;-66
2021/12/28 00:45:18;;;;;;;3.10;2.40;;;;;;;;;;5017140;28;20215;-66
2021/12/28 00:47:47;;;;;;;4.07;2.60;;;;;;;;;;5016874;28;20229;-67
2021/12/28 00:50:16;;;;;;;3.43;2.30;;;;;;;;;;5017190;28;20208;-68
2021/12/28 00:52:44;;;;;;;3.97;2.60;;;;;;;;;;5016847;28;20250;-68
2021/12/28 00:55:13;;;;;;;3.77;2.67;;;;;;;;;;5017012;28;20219;-67
2021/12/28 00:57:41;;;;;;;4.63;2.47;;;;;;;;;;4998805;28;20225;-67
2021/12/28 01:00:10;;;;;;;5.00;3.07;;;;;;;;;;4997052;28;20217;-67
2021/12/28 01:02:39;;;;;;;3.77;2.23;;;;;;;;;;4997325;28;20213;-68
2021/12/28 01:05:09;;;;;;;4.30;3.00;;;;;;;;;;4997430;28;20209;-71
2021/12/28 01:07:37;;;;;;;3.17;2.40;;;;;;;;;;4997240;28;20231;-71
2021/12/28 01:10:06;;;;;;;2.80;2.47;;;;;;;;;;4997047;28;20599;-71
2021/12/28 01:12:35;;;;;;;3.43;2.27;;;;;;;;;;5003673;28;20556;-71
2021/12/28 01:15:09;;;;;;;3.40;2.00;;;;;;;;;;5016519;28;20735;-71
2021/12/28 01:17:37;;;;;;;4.53;2.63;;;;;;;;;;5016327;28;20710;-71
2021/12/28 01:20:06;;;;;;;3.43;2.30;;;;;;;;;;5016708;28;20218;-71
2021/12/28 01:22:36;;;;;;;5.50;1.93;;;;;;;;;;5016765;28;20214;-72
2021/12/28 01:25:04;;;;;;;4.70;2.67;;;;;;;;;;5016424;28;20204;-71
2021/12/28 01:27:32;;;;;;;5.07;2.50;;;;;;;;;;5016144;28;20295;-71
2021/12/28 01:30:00;;;;;;;3.53;2.20;;;;;;;;;;5015841;28;20672;-72
2021/12/28 01:32:29;;;;;;;2.50;2.00;;;;;;;;;;5016125;28;20556;-71
2021/12/28 01:34:57;;;;;;;3.20;2.00;;;;;;;;;;5016413;28;20214;-70
2021/12/28 01:37:28;;;;;;;4.47;2.00;;;;;;;;;;5016183;28;20602;-69
2021/12/28 01:39:57;;;;;;;3.60;2.07;;;;;;;;;;5016212;28;20667;-73
2021/12/28 01:42:25;;;;;;;6.53;1.77;;;;;;;;;;5016393;28;20214;-73
2021/12/28 01:44:53;;;;;;;3.77;1.50;;;;;;;;;;5016109;28;20212;-72
2021/12/28 01:47:22;;;;;;;3.00;1.87;;;;;;;;;;5015868;28;20648;-70
2021/12/28 01:49:50;;;;;;;2.10;1.70;;;;;;;;;;5015901;28;20584;-71
2021/12/28 01:52:18;;;;;;;3.63;1.63;;;;;;;;;;5015764;28;20718;-70
2021/12/28 01:54:46;;;;;;;4.83;1.50;;;;;;;;;;5006571;28;20205;-70
2021/12/28 01:57:18;;;;;;;6.43;1.80;;;;;;;;;;5010283;28;20220;-71
2021/12/28 01:59:46;;;;;;;3.33;1.67;;;;;;;;;;5013206;28;20200;-70
2021/12/28 02:02:14;;;;;;;3.20;1.70;;;;;;;;;;5013558;28;20207;-69
2021/12/28 02:04:42;;;;;;;2.00;1.63;;;;;;;;;;5020334;28;20222;-70
2021/12/28 02:07:10;;;;;;;2.03;1.53;;;;;;;;;;5018841;28;20223;-70
2021/12/28 02:09:39;;;;;;;3.47;2.03;;;;;;;;;;5013251;28;20203;-70
2021/12/28 02:12:08;;;;;;;2.90;1.97;;;;;;;;;;5014750;28;20674;-71
2021/12/28 02:14:43;;;;;;;2.37;1.80;;;;;;;;;;5017575;28;20211;-71
2021/12/28 02:17:12;;;;;;;2.83;1.93;;;;;;;;;;5021355;28;20692;-71
2021/12/28 02:19:39;;;;;;;4.17;2.30;;;;;;;;;;5020349;28;20210;-71
2021/12/28 02:22:09;;;;;;;3.43;2.10;;;;;;;;;;5019700;28;20206;-70
2021/12/28 02:24:37;;;;;;;3.20;1.60;;;;;;;;;;5021392;28;20584;-71
2021/12/28 02:27:05;;;;;;;2.97;2.23;;;;;;;;;;5021358;28;20229;-71
2021/12/28 02:29:33;;;;;;;2.73;1.70;;;;;;;;;;5019983;28;20570;-71
2021/12/28 02:32:01;;;;;;;3.63;2.17;;;;;;;;;;5018485;28;20577;-71
2021/12/28 02:34:29;;;;;;;3.17;1.90;;;;;;;;;;5023945;28;20361;-71
2021/12/28 02:36:57;;;;;;;4.80;1.93;;;;;;;;;;5023425;28;20246;-71
2021/12/28 02:39:27;;;;;;;72.43;43.20;;;;;;;;;;5020809;28;20204;-71
2021/12/28 02:41:55;;;;;;;200.23;106.37;;;;;;;;;;5019663;28;20769;-67
2021/12/28 02:44:23;;;;;;;644.77;386.33;;;;;;;;;;5017343;28;20219;-73
2021/12/28 02:46:51;;;;;;;693.53;439.47;;;;;;;;;;5024438;28;20223;-68
2021/12/28 02:49:19;;;;;;;143.40;96.53;;;;;;;;;;5022594;28;20196;-71
2021/12/28 02:51:47;;;;;;;11.93;7.90;;;;;;;;;;5022233;28;20286;-72
2021/12/28 02:54:15;;;;;;;8.57;6.67;;;;;;;;;;5015536;28;20201;-71
2021/12/28 02:56:45;;;;;;;2.80;2.07;;;;;;;;;;5023176;28;20227;-71
2021/12/28 02:59:13;;;;;;;2.23;1.70;;;;;;;;;;5023178;28;20231;-71
2021/12/28 03:01:41;;;;;;;5.17;2.40;;;;;;;;;;5022520;28;20200;-71
2021/12/28 03:04:09;;;;;;;2.17;1.97;;;;;;;;;;5015250;28;20200;-71
2021/12/28 03:06:37;;;;;;;36.23;17.63;;;;;;;;;;5012755;28;20231;-66
2021/12/28 03:09:06;;;;;;;20.63;14.53;;;;;;;;;;5012251;28;20207;-66
2021/12/28 03:11:34;;;;;;;249.50;131.23;;;;;;;;;;5014836;28;20552;-67
2021/12/28 03:14:04;;;;;;;57.47;33.73;;;;;;;;;;5014513;28;20570;-65
2021/12/28 03:16:32;;;;;;;1783.73;745.53;;;;;;;;;;5015015;28;20239;-71
2021/12/28 03:19:01;;;;;;;369.80;169.07;;;;;;;;;;5014808;28;20235;-71
2021/12/28 03:21:30;;;;;;;121.87;61.93;;;;;;;;;;5014697;28;20208;-71
2021/12/28 03:23:58;;;;;;;50.47;30.47;;;;;;;;;;5014959;28;20240;-72
2021/12/28 03:26:26;;;;;;;11.57;9.40;;;;;;;;;;5016826;28;20220;-73
2021/12/28 03:28:54;;;;;;;6.10;3.97;;;;;;;;;;5019926;28;20211;-72
2021/12/28 03:31:24;;;;;;;4.73;2.33;;;;;;;;;;5019640;28;20196;-72
2021/12/28 03:33:53;;;;;;;3.53;1.60;;;;;;;;;;5020853;28;20261;-73
2021/12/28 03:36:22;;;;;;;4.00;1.43;;;;;;;;;;5022887;28;20217;-71
2021/12/28 03:38:51;;;;;;;4.37;1.80;;;;;;;;;;5023555;28;20230;-71
2021/12/28 03:41:20;;;;;;;3.10;1.50;;;;;;;;;;5024385;28;20203;-71
2021/12/28 03:43:49;;;;;;;3.27;1.40;;;;;;;;;;5019535;28;20577;-71
2021/12/28 03:46:17;;;;;;;2.93;1.37;;;;;;;;;;5018921;28;20310;-71
2021/12/28 03:48:47;;;;;;;4.67;1.60;;;;;;;;;;5022769;28;20295;-72
2021/12/28 03:51:15;;;;;;;3.00;1.60;;;;;;;;;;5021038;28;20677;-72
2021/12/28 03:53:44;;;;;;;2.43;1.50;;;;;;;;;;5022187;28;20262;-72
2021/12/28 03:56:12;;;;;;;3.60;1.63;;;;;;;;;;5024588;28;20220;-71
2021/12/28 03:58:41;;;;;;;3.17;1.70;;;;;;;;;;5023470;28;20221;-71
2021/12/28 04:01:11;;;;;;;3.33;1.40;;;;;;;;;;5026197;28;20201;-72
2021/12/28 04:03:39;;;;;;;3.00;1.30;;;;;;;;;;5026350;28;20196;-72
2021/12/28 04:06:10;;;;;;;3.07;1.27;;;;;;;;;;5020951;28;20225;-72
2021/12/28 04:08:38;;;;;;;2.00;1.57;;;;;;;;;;5025030;28;20203;-72
2021/12/28 04:11:15;;;;;;;6.43;1.80;;;;;;;;;;5024011;28;20663;-72
2021/12/28 04:13:44;;;;;;;2.17;1.67;;;;;;;;;;5023257;28;20211;-71
2021/12/28 04:16:12;;;;;;;3.17;1.60;;;;;;;;;;5026094;28;20311;-71
2021/12/28 04:18:40;;;;;;;2.57;1.50;;;;;;;;;;5022058;28;20220;-72
2021/12/28 04:21:10;;;;;;;2.30;1.30;;;;;;;;;;5006301;28;20211;-72
2021/12/28 04:23:38;;;;;;;1.80;1.50;;;;;;;;;;4997067;28;20213;-72
2021/12/28 04:26:06;;;;;;;2.47;1.10;;;;;;;;;;4997517;28;20229;-71
2021/12/28 04:28:34;;;;;;;4.30;1.97;;;;;;;;;;4997461;28;20566;-72
2021/12/28 04:31:03;;;;;;;2.53;1.10;;;;;;;;;;4997543;28;20213;-72
2021/12/28 04:33:31;;;;;;;2.57;1.50;;;;;;;;;;4997693;28;20707;-72
2021/12/28 04:35:59;;;;;;;4.43;1.57;;;;;;;;;;4997893;28;20328;-71
2021/12/28 04:38:28;;;;;;;1.53;1.13;;;;;;;;;;4997561;28;20260;-71
2021/12/28 04:40:56;;;;;;;2.50;1.60;;;;;;;;;;4997817;28;20208;-72
2021/12/28 04:43:24;;;;;;;2.43;1.10;;;;;;;;;;5004392;28;20208;-71
2021/12/28 04:45:52;;;;;;;2.03;1.50;;;;;;;;;;5016879;28;20233;-71
2021/12/28 04:48:20;;;;;;;2.50;1.50;;;;;;;;;;5017249;28;20204;-71
2021/12/28 04:50:48;;;;;;;1.63;1.37;;;;;;;;;;5017226;28;20211;-72
2021/12/28 04:53:16;;;;;;;5.60;1.20;;;;;;;;;;5016885;28;20244;-71
2021/12/28 04:55:46;;;;;;;1.50;1.40;;;;;;;;;;5014345;28;20671;-72
2021/12/28 04:58:15;;;;;;;2.40;1.30;;;;;;;;;;4997615;28;20219;-72
2021/12/28 05:00:43;;;;;;;2.10;1.20;;;;;;;;;;4997576;28;20212;-71
2021/12/28 05:03:12;;;;;;;4.90;2.60;;;;;;;;;;5012535;28;20213;-72
2021/12/28 05:05:43;;;;;;;4.07;1.90;;;;;;;;;;5006601;28;20225;-72
2021/12/28 05:08:11;;;;;;;2.50;1.20;;;;;;;;;;5008914;28;20205;-72
2021/12/28 05:10:39;;;;;;;2.13;1.50;;;;;;;;;;5008059;28;20215;-72
2021/12/28 05:13:09;;;;;;;2.13;1.90;;;;;;;;;;5010819;28;20205;-72
2021/12/28 05:15:37;;;;;;;1.80;1.30;;;;;;;;;;5014052;28;20212;-72
2021/12/28 05:18:05;;;;;;;1.60;1.27;;;;;;;;;;5014723;28;20204;-71
2021/12/28 05:20:33;;;;;;;1.90;1.60;;;;;;;;;;5006668;28;20242;-72
2021/12/28 05:23:01;;;;;;;2.57;1.80;;;;;;;;;;5012975;28;20660;-71
2021/12/28 05:25:29;;;;;;;5.67;1.90;;;;;;;;;;5012825;28;20207;-71
2021/12/28 05:27:57;;;;;;;3.83;1.80;;;;;;;;;;5008828;28;20595;-72
2021/12/28 05:30:26;;;;;;;2.30;1.30;;;;;;;;;;5015406;28;20663;-71
2021/12/28 05:32:54;;;;;;;1.90;1.47;;;;;;;;;;5014305;28;20208;-71
2021/12/28 05:35:23;;;;;;;2.90;1.77;;;;;;;;;;5014547;28;20211;-71
2021/12/28 05:37:51;;;;;;;3.73;2.13;;;;;;;;;;5014382;28;20236;-71
2021/12/28 05:40:19;;;;;;;4.00;1.80;;;;;;;;;;5014405;28;20224;-71
2021/12/28 05:42:47;;;;;;;2.90;1.90;;;;;;;;;;5014432;28;20673;-71
2021/12/28 05:45:19;;;;;;;4.10;1.43;;;;;;;;;;5014715;28;20223;-71
2021/12/28 05:47:49;;;;;;;2.97;1.30;;;;;;;;;;5015799;28;20240;-71
2021/12/28 05:50:17;;;;;;;2.63;1.77;;;;;;;;;;5016135;28;20667;-71
2021/12/28 05:52:45;;;;;;;2.33;1.37;;;;;;;;;;5015920;28;20248;-71
2021/12/28 05:55:13;;;;;;;2.57;1.50;;;;;;;;;;5016097;28;20214;-71
2021/12/28 05:57:41;;;;;;;1.90;1.60;;;;;;;;;;4997822;28;20224;-72
2021/12/28 06:00:10;;;;;;;2.43;1.43;;;;;;;;;;4996048;28;20232;-72
2021/12/28 06:02:38;;;;;;;3.83;1.47;;;;;;;;;;5012072;28;20231;-71
2021/12/28 06:05:08;;;;;;;4.27;1.60;;;;;;;;;;5016174;28;20261;-71
2021/12/28 06:07:36;;;;;;;3.87;1.83;;;;;;;;;;5016074;28;20312;-71
2021/12/28 06:10:05;;;;;;;3.03;1.50;;;;;;;;;;5015956;28;20208;-71
2021/12/28 06:12:33;;;;;;;3.23;1.97;;;;;;;;;;5015505;28;20667;-72
2021/12/28 06:15:01;;;;;;;1.60;1.50;;;;;;;;;;5015660;28;20208;-71
2021/12/28 06:17:29;;;;;;;2.47;1.73;;;;;;;;;;5015574;28;20235;-71
2021/12/28 06:19:57;;;;;;;1.60;1.43;;;;;;;;;;5015747;28;20292;-71
2021/12/28 06:22:26;;;;;;;4.33;2.00;;;;;;;;;;5015730;28;20211;-71
2021/12/28 06:24:54;;;;;;;1.80;1.70;;;;;;;;;;5015290;28;20675;-71
2021/12/28 06:27:22;;;;;;;2.67;1.70;;;;;;;;;;5015626;28;20232;-71
2021/12/28 06:29:50;;;;;;;2.23;1.53;;;;;;;;;;5015301;28;20209;-71
2021/12/28 06:32:18;;;;;;;3.33;1.63;;;;;;;;;;5015204;28;20667;-71
2021/12/28 06:34:46;;;;;;;4.40;1.80;;;;;;;;;;5015715;28;20205;-72
2021/12/28 06:37:14;;;;;;;2.43;1.97;;;;;;;;;;5015218;28;20239;-72
2021/12/28 06:39:43;;;;;;;1.77;1.57;;;;;;;;;;5015488;28;20229;-71
2021/12/28 06:42:11;;;;;;;4.40;1.90;;;;;;;;;;5015258;28;20569;-71
2021/12/28 06:44:43;;;;;;;3.63;1.73;;;;;;;;;;5014992;28;20207;-71
2021/12/28 06:47:11;;;;;;;2.17;1.90;;;;;;;;;;5015177;28;20235;-71
2021/12/28 06:49:39;;;;;;;2.70;1.87;;;;;;;;;;5015136;28;20212;-70
2021/12/28 06:52:07;;;;;;;8.87;6.20;;;;;;;;;;5015088;28;20707;-63
2021/12/28 06:54:37;;;;;;;9.47;4.80;;;;;;;;;;5015295;28;20215;-65
2021/12/28 06:57:09;;;;;;;7.40;3.97;;;;;;;;;;5001682;28;20248;-62
2021/12/28 06:59:38;;;;;;;7.87;4.10;;;;;;;;;;4995374;28;20204;-64
2021/12/28 07:02:06;;;;;;;7.03;4.13;;;;;;;;;;5008666;28;20213;-66
2021/12/28 07:04:34;;;;;;;7.30;4.70;;;;;;;;;;5013588;28;20208;-68
2021/12/28 07:07:02;;;;;;;5.60;3.50;;;;;;;;;;5013932;28;20310;-67
2021/12/28 07:09:30;;;;;;;6.70;3.33;;;;;;;;;;5014464;28;20212;-65
2021/12/28 07:11:58;;;;;;;4.53;3.20;;;;;;;;;;5015159;28;20265;-66
2021/12/28 07:14:28;;;;;;;5.40;3.17;;;;;;;;;;5014688;28;20286;-67
2021/12/28 07:16:56;;;;;;;7.80;3.07;;;;;;;;;;4996979;28;20598;-66
2021/12/28 07:19:24;;;;;;;164.43;18.77;;;;;;;;;;4995299;28;20208;-69
2021/12/28 07:21:52;;;;;;;18.57;4.30;;;;;;;;;;4995322;28;20231;-73
2021/12/28 07:24:20;;;;;;;4.23;2.97;;;;;;;;;;4995343;28;20213;-73
2021/12/28 07:26:48;;;;;;;5.80;3.20;;;;;;;;;;4995075;28;20235;-73
2021/12/28 07:29:16;;;;;;;7.03;2.93;;;;;;;;;;4997364;28;20219;-73
2021/12/28 07:31:46;;;;;;;3.77;3.00;;;;;;;;;;4997464;28;20232;-73
2021/12/28 07:34:14;;;;;;;6.63;3.13;;;;;;;;;;4996780;28;20209;-73
2021/12/28 07:36:42;;;;;;;5.30;3.23;;;;;;;;;;4996793;28;20234;-73
2021/12/28 07:39:10;;;;;;;8.33;3.43;;;;;;;;;;4996680;28;20219;-72
2021/12/28 07:41:38;;;;;;;5.60;3.50;;;;;;;;;;4996607;28;20224;-73
2021/12/28 07:44:06;;;;;;;5.23;3.00;;;;;;;;;;4996677;28;20211;-74
2021/12/28 07:46:34;;;;;;;3.17;2.33;;;;;;;;;;4997421;28;20320;-72
2021/12/28 07:49:04;;;;;;;8.00;2.87;;;;;;;;;;4998149;28;20297;-73
2021/12/28 07:51:32;;;;;;;4.20;2.50;;;;;;;;;;4998283;28;20201;-72
2021/12/28 07:54:00;;;;;;;5.50;2.90;;;;;;;;;;5010796;28;20683;-72
2021/12/28 07:56:28;;;;;;;4.57;2.70;;;;;;;;;;5009668;28;20618;-71
2021/12/28 07:58:56;;;;;;;3.83;2.40;;;;;;;;;;5002348;28;20216;-72
2021/12/28 08:01:24;;;;;;;5.60;2.70;;;;;;;;;;5007563;28;20224;-74
2021/12/28 08:03:53;;;;;;;3.50;2.47;;;;;;;;;;5013064;28;20219;-72
2021/12/28 08:06:22;;;;;;;3.93;2.70;;;;;;;;;;5009286;28;20241;-70
2021/12/28 08:08:50;;;;;;;6.43;3.00;;;;;;;;;;5012560;28;20686;-70
2021/12/28 08:11:18;;;;;;;4.23;2.53;;;;;;;;;;5009479;28;20201;-69
2021/12/28 08:13:46;;;;;;;3.03;2.40;;;;;;;;;;5012710;28;20212;-70
2021/12/28 08:19:43;;;;;;;3.50;2.40;;;;;;;;;;5012207;28;20183;-68
2021/12/28 08:22:12;;;;;;;4.30;2.70;;;;;;;;;;5013524;28;20320;-69
2021/12/28 08:24:40;;;;;;;5.50;2.77;;;;;;;;;;5015469;28;20982;-68
2021/12/28 08:27:08;;;;;;;4.73;2.57;;;;;;;;;;5006156;28;20576;-69
2021/12/28 08:29:39;;;;;;;221.50;111.80;;;;;;;;;;5010596;28;20291;-64
2021/12/28 08:32:08;;;;;;;488.13;349.27;;;;;;;;;;5001349;28;20224;-67
2021/12/28 08:34:36;;;;;;;38.13;23.40;;;;;;;;;;5005269;28;20211;-68
2021/12/28 08:37:04;;;;;;;8.27;4.50;;;;;;;;;;5001087;28;20233;-68
2021/12/28 08:39:34;;;;;;;3.80;2.83;;;;;;;;;;5003953;28;20212;-69
2021/12/28 08:42:02;;;;;;;16.07;8.30;;;;;;;;;;5008763;28;20235;-69
2021/12/28 08:44:29;;;;;;;6.40;2.83;;;;;;;;;;5004361;28;20682;-68
2021/12/28 08:46:58;;;;;;;4.47;2.57;;;;;;;;;;5002420;28;20227;-68
2021/12/28 08:49:26;;;;;;;6.77;2.70;;;;;;;;;;5012525;28;20291;-69
2021/12/28 08:51:54;;;;;;;4.90;2.40;;;;;;;;;;5009984;28;20232;-70
2021/12/28 08:54:22;;;;;;;3.67;1.80;;;;;;;;;;5013112;28;20208;-68
2021/12/28 08:56:52;;;;;;;3.37;2.40;;;;;;;;;;5010933;28;20236;-69
2021/12/28 08:59:20;;;;;;;12.37;8.77;;;;;;;;;;5010534;28;20210;-64
2021/12/28 09:01:49;;;;;;;87.23;45.07;;;;;;;;;;5003815;28;20251;-69
2021/12/28 09:04:18;;;;;;;26.27;15.13;;;;;;;;;;5005410;28;20734;-70
2021/12/28 09:06:46;;;;;;;6.40;3.67;;;;;;;;;;5007240;28;20221;-69
2021/12/28 09:09:14;;;;;;;4.00;2.43;;;;;;;;;;5013319;28;20231;-67
2021/12/28 09:11:43;;;;;;;4.17;2.10;;;;;;;;;;5007203;28;20205;-70
2021/12/28 09:14:12;;;;;;;3.57;2.40;;;;;;;;;;5011154;28;20215;-71
2021/12/28 09:16:40;;;;;;;3.97;2.07;;;;;;;;;;5014052;28;20217;-72
2021/12/28 09:19:08;;;;;;;7.00;2.03;;;;;;;;;;5013439;28;20204;-70
2021/12/28 09:21:36;;;;;;;2.80;2.17;;;;;;;;;;5018805;28;20219;-70
2021/12/28 09:24:04;;;;;;;3.27;1.90;;;;;;;;;;5022126;28;20211;-70
2021/12/28 09:26:52;;;;;;;6.40;2.13;;;;;;;;;;5015311;28;20236;-69
2021/12/28 09:29:25;;;;;;;4.80;2.60;;;;;;;;;;5017960;28;20859;-69
2021/12/28 09:31:53;;;;;;;4.47;2.03;;;;;;;;;;5017015;28;20211;-70
2021/12/28 09:34:21;;;;;;;3.30;2.00;;;;;;;;;;5010013;28;20228;-70
2021/12/28 09:36:58;;;;;;;5.60;2.50;;;;;;;;;;5010136;28;20633;-70
2021/12/28 09:39:27;;;;;;;4.63;2.23;;;;;;;;;;5012832;28;20217;-71
2021/12/28 09:41:58;;;;;;;3.13;1.77;;;;;;;;;;5014292;28;20576;-72
2021/12/28 09:44:28;;;;;;;2.13;1.93;;;;;;;;;;5012790;28;20295;-70
2021/12/28 09:46:57;;;;;;;4.03;2.43;;;;;;;;;;5010180;28;20232;-70
2021/12/28 09:49:26;;;;;;;4.17;2.20;;;;;;;;;;5009713;28;20270;-71
2021/12/28 09:51:54;;;;;;;4.57;2.07;;;;;;;;;;5007012;28;20221;-68
2021/12/28 09:54:23;;;;;;;4.90;2.23;;;;;;;;;;5006035;28;20219;-68
2021/12/28 09:56:51;;;;;;;5.67;2.23;;;;;;;;;;5008249;28;20267;-68
2021/12/28 09:59:19;;;;;;;3.80;2.30;;;;;;;;;;5005528;28;20201;-68
2021/12/28 10:01:49;;;;;;;10.17;6.63;;;;;;;;;;5011754;28;20748;-68
2021/12/28 10:04:18;;;;;;;4.53;3.00;;;;;;;;;;5004159;28;20205;-75
2021/12/28 10:06:46;;;;;;;4.00;2.40;;;;;;;;;;5006225;28;20263;-75
2021/12/28 10:09:14;;;;;;;5.10;2.47;;;;;;;;;;5006076;28;20311;-75
2021/12/28 10:11:48;;;;;;;5.23;2.50;;;;;;;;;;5007837;28;20208;-75
2021/12/28 10:14:17;;;;;;;3.50;2.00;;;;;;;;;;5010286;28;20307;-70
2021/12/28 10:16:47;;;;;;;2.90;1.80;;;;;;;;;;5007557;28;20316;-73
2021/12/28 10:19:34;;;;;;;6.33;2.20;;;;;;;;;;5004767;28;20582;-74
2021/12/28 10:22:25;;;;;;;4.90;2.10;;;;;;;;;;5002225;28;20232;-75
2021/12/28 10:24:54;;;;;;;4.70;2.00;;;;;;;;;;5006748;28;20214;-75
2021/12/28 10:27:24;;;;;;;4.40;1.90;;;;;;;;;;5007159;28;20695;-74
2021/12/28 10:29:52;;;;;;;6.10;2.23;;;;;;;;;;5003570;28;20635;-66
2021/12/28 10:32:22;;;;;;;372.47;203.67;;;;;;;;;;5003466;28;20216;-75
2021/12/28 10:34:53;;;;;;;27.13;19.20;;;;;;;;;;5007012;28;20590;-75
2021/12/28 10:37:21;;;;;;;6.20;5.70;;;;;;;;;;5004995;28;20229;-76
2021/12/28 10:39:51;;;;;;;3.43;2.33;;;;;;;;;;5003083;28;20212;-74
2021/12/28 10:42:40;;;;;;;3.83;2.67;;;;;;;;;;5005620;28;20258;-75
2021/12/28 10:45:09;;;;;;;4.20;2.17;;;;;;;;;;5010061;28;20210;-72
2021/12/28 10:47:37;;;;;;;4.00;2.53;;;;;;;;;;5013139;28;20224;-74
2021/12/28 10:50:19;;;;;;;2.17;1.87;;;;;;;;;;5013301;28;20204;-75
2021/12/28 10:52:59;;;;;;;5.30;2.13;;;;;;;;;;5009985;28;20351;-75
2021/12/28 10:55:28;;;;;;;3.83;2.00;;;;;;;;;;5012023;28;20204;-75
2021/12/28 10:57:56;;;;;;;3.47;1.73;;;;;;;;;;5013020;28;20226;-74
2021/12/28 11:00:26;;;;;;;6.27;2.30;;;;;;;;;;5011055;28;20291;-75
2021/12/28 11:03:14;;;;;;;4.97;2.13;;;;;;;;;;5007472;28;20255;-75
2021/12/28 11:05:45;;;;;;;3.70;1.90;;;;;;;;;;5005603;28;20209;-76
2021/12/28 11:08:13;;;;;;;2.07;1.50;;;;;;;;;;5009764;28;20213;-75
2021/12/28 11:10:42;;;;;;;2.67;1.90;;;;;;;;;;4999317;28;20209;-75
2021/12/28 11:13:11;;;;;;;5.30;2.03;;;;;;;;;;5002777;28;20204;-76
2021/12/28 11:15:41;;;;;;;2.37;1.80;;;;;;;;;;5005172;28;20200;-77
2021/12/28 11:18:22;;;;;;;3.73;1.93;;;;;;;;;;5011668;28;20208;-78
2021/12/28 11:20:53;;;;;;;1.80;1.70;;;;;;;;;;5006615;28;20223;-77
2021/12/28 11:23:27;;;;;;;4.50;1.90;;;;;;;;;;5010035;28;20327;-77
2021/12/28 11:26:04;;;;;;;4.33;2.40;;;;;;;;;;5013101;28;20266;-77
2021/12/28 11:28:32;;;;;;;2.10;1.97;;;;;;;;;;5010424;28;20208;-76
2021/12/28 11:31:02;;;;;;;3.03;1.90;;;;;;;;;;5012798;28;20216;-76
2021/12/28 11:33:45;;;;;;;4.73;1.90;;;;;;;;;;5012091;28;20208;-77
2021/12/28 11:36:15;;;;;;;3.33;2.00;;;;;;;;;;5012298;28;20289;-77
2021/12/28 11:38:43;;;;;;;2.83;2.07;;;;;;;;;;5007070;28;20720;-77
2021/12/28 11:41:12;;;;;;;2.63;1.83;;;;;;;;;;5009506;28;20208;-77
2021/12/28 11:43:40;;;;;;;2.30;1.50;;;;;;;;;;5005588;28;20287;-77
2021/12/28 11:46:09;;;;;;;2.70;1.90;;;;;;;;;;4998909;28;20229;-78
2021/12/28 11:48:38;;;;;;;4.07;2.43;;;;;;;;;;5003336;28;20215;-77
2021/12/28 11:51:06;;;;;;;3.13;1.70;;;;;;;;;;5010200;28;20243;-76
2021/12/28 11:53:37;;;;;;;2.63;1.60;;;;;;;;;;5009405;28;20224;-77
2021/12/28 11:56:06;;;;;;;4.13;1.90;;;;;;;;;;5009256;28;20228;-76
2021/12/28 11:58:48;;;;;;;5.60;1.67;;;;;;;;;;5009791;28;20201;-77
2021/12/28 12:01:31;;;;;;;4.13;1.83;;;;;;;;;;5008656;28;20211;-77
2021/12/28 12:03:59;;;;;;;4.77;1.57;;;;;;;;;;5010838;28;20287;-77
2021/12/28 12:06:56;;;;;;;4.23;1.70;;;;;;;;;;5012423;28;20258;-77
2021/12/28 12:09:26;;;;;;;3.10;1.87;;;;;;;;;;5008137;28;20205;-76
2021/12/28 12:12:13;;;;;;;3.47;1.90;;;;;;;;;;5009718;28;20290;-77
2021/12/28 12:15:01;;;;;;;4.17;2.23;;;;;;;;;;5011020;28;20226;-76
2021/12/28 12:17:39;;;;;;;3.73;1.77;;;;;;;;;;5013334;28;20587;-77
2021/12/28 12:20:08;;;;;;;3.10;1.77;;;;;;;;;;5014335;28;20226;-77
2021/12/28 12:22:37;;;;;;;3.63;1.40;;;;;;;;;;5008774;28;20229;-77
2021/12/28 12:25:09;;;;;;;6.97;2.23;;;;;;;;;;5016170;28;20652;-77
2021/12/28 12:27:41;;;;;;;3.53;2.13;;;;;;;;;;5010648;28;20247;-77
2021/12/28 12:30:24;;;;;;;3.60;1.80;;;;;;;;;;5007620;28;20208;-78
2021/12/28 12:33:02;;;;;;;6.47;2.20;;;;;;;;;;5002394;28;20215;-76
2021/12/28 12:35:32;;;;;;;2.70;1.57;;;;;;;;;;5013952;28;20204;-77
2021/12/28 12:38:04;;;;;;;2.13;1.73;;;;;;;;;;5013888;28;20605;-77
2021/12/28 12:43:41;;;;;;;4.73;1.83;;;;;;;;;;5157692;27;20575;-75
2021/12/28 12:46:10;;;;;;;3.57;1.67;;;;;;;;;;5140557;27;20301;-75
2021/12/28 12:48:57;;;;;;;2.10;1.40;;;;;;;;;;5165118;27;20191;-74
2021/12/28 12:51:28;;;;;;;4.70;2.43;;;;;;;;;;5166943;27;20201;-75
2021/12/28 12:53:58;;;;;;;4.23;2.00;;;;;;;;;;5159192;27;20271;-75
2021/12/28 12:56:28;;;;;;;3.47;1.77;;;;;;;;;;5159935;27;20697;-75
2021/12/28 12:58:59;;;;;;;3.07;1.70;;;;;;;;;;5160624;27;20200;-77
2021/12/28 13:01:54;;;;;;;5.03;1.70;;;;;;;;;;5160947;27;20191;-75
2021/12/28 13:04:37;;;;;;;2.60;2.13;;;;;;;;;;5163072;27;20256;-75
2021/12/28 13:07:07;;;;;;;6.53;2.00;;;;;;;;;;5143080;27;20219;-75
2021/12/28 13:09:36;;;;;;;7.33;2.37;;;;;;;;;;5163706;27;20231;-75
2021/12/28 13:12:06;;;;;;;3.37;1.90;;;;;;;;;;5160758;27;20188;-75
2021/12/28 13:14:36;;;;;;;3.40;1.90;;;;;;;;;;5161031;27;20634;-75
2021/12/28 13:17:05;;;;;;;4.10;2.37;;;;;;;;;;5163610;27;20221;-75
2021/12/28 13:19:38;;;;;;;5.00;1.57;;;;;;;;;;5166730;27;20203;-75
2021/12/28 13:22:09;;;;;;;4.83;2.00;;;;;;;;;;5163147;27;20580;-75
2021/12/28 13:24:44;;;;;;;4.33;2.10;;;;;;;;;;5163443;27;20263;-76
2021/12/28 13:27:16;;;;;;;2.83;1.77;;;;;;;;;;5163736;27;20321;-76
2021/12/28 13:29:48;;;;;;;3.53;1.73;;;;;;;;;;5163819;27;20202;-76
2021/12/28 13:32:18;;;;;;;2.73;1.83;;;;;;;;;;5165637;27;20203;-76
2021/12/28 13:35:03;;;;;;;2.53;1.97;;;;;;;;;;5155571;27;20204;-76
2021/12/28 13:37:32;;;;;;;3.03;2.13;;;;;;;;;;5155916;27;20682;-75
2021/12/28 13:40:01;;;;;;;5.73;2.23;;;;;;;;;;5148271;27;20222;-76
2021/12/28 13:42:29;;;;;;;2.07;1.83;;;;;;;;;;5149739;27;20223;-76
2021/12/28 13:44:59;;;;;;;3.03;2.00;;;;;;;;;;5151194;27;20191;-76
2021/12/28 13:47:27;;;;;;;3.53;2.07;;;;;;;;;;5148959;27;20287;-76
2021/12/28 13:50:05;;;;;;;3.30;2.20;;;;;;;;;;5152868;27;20202;-76
2021/12/28 13:52:40;;;;;;;3.53;2.03;;;;;;;;;;5151869;27;20199;-76
2021/12/28 13:55:10;;;;;;;3.70;2.00;;;;;;;;;;5137913;27;20205;-76
2021/12/28 13:57:38;;;;;;;3.33;1.60;;;;;;;;;;5138340;27;20284;-76
2021/12/28 14:00:09;;;;;;;5.50;1.80;;;;;;;;;;5137248;27;20235;-76
2021/12/28 14:02:38;;;;;;;5.10;2.53;;;;;;;;;;5140327;27;20224;-76
2021/12/28 14:05:07;;;;;;;3.40;2.37;;;;;;;;;;5137771;27;20207;-76
2021/12/28 14:07:35;;;;;;;10.47;2.50;;;;;;;;;;5137992;27;20217;-75
2021/12/28 14:10:04;;;;;;;5.97;2.10;;;;;;;;;;5146454;27;20210;-77
2021/12/28 14:12:32;;;;;;;5.37;2.20;;;;;;;;;;5138288;27;20196;-77
2021/12/28 14:15:00;;;;;;;34.80;12.27;;;;;;;;;;5141089;27;20212;-78
2021/12/28 14:17:30;;;;;;;2.63;2.40;;;;;;;;;;5140292;27;20222;-78
2021/12/28 14:20:02;;;;;;;5.30;2.23;;;;;;;;;;5140212;27;20281;-79
2021/12/28 14:22:30;;;;;;;4.87;2.30;;;;;;;;;;5143047;27;20241;-78
2021/12/28 14:24:58;;;;;;;5.27;1.97;;;;;;;;;;5140297;27;20283;-79
2021/12/28 14:27:28;;;;;;;3.03;1.83;;;;;;;;;;5140420;27;20297;-79
2021/12/28 14:30:00;;;;;;;4.50;2.33;;;;;;;;;;5140656;27;20575;-79
2021/12/28 14:32:36;;;;;;;4.73;1.90;;;;;;;;;;5140860;27;20202;-79
2021/12/28 14:35:05;;;;;;;4.60;2.30;;;;;;;;;;5141612;27;20208;-79
2021/12/28 14:37:38;;;;;;;6.03;2.33;;;;;;;;;;5141060;27;20228;-78
2021/12/28 14:40:14;;;;;;;5.47;1.93;;;;;;;;;;5139838;27;20214;-78
2021/12/28 14:42:42;;;;;;;4.77;2.40;;;;;;;;;;5141159;27;20242;-78
2021/12/28 14:45:11;;;;;;;5.07;2.30;;;;;;;;;;5139910;27;20208;-79
2021/12/28 14:47:41;;;;;;;3.37;2.00;;;;;;;;;;5140829;27;20232;-78
2021/12/28 14:50:15;;;;;;;6.17;2.37;;;;;;;;;;5139881;27;20204;-78
2021/12/28 14:52:44;;;;;;;5.67;2.60;;;;;;;;;;5140271;27;20214;-79
2021/12/28 14:55:13;;;;;;;3.60;2.33;;;;;;;;;;5141048;27;20203;-78
2021/12/28 14:57:42;;;;;;;3.63;1.90;;;;;;;;;;5140958;27;20253;-77
2021/12/28 15:00:13;;;;;;;4.10;2.13;;;;;;;;;;5137574;27;20723;-76
2021/12/28 15:02:50;;;;;;;2.47;2.23;;;;;;;;;;5141749;27;20235;-78